sensor_id;sensor_type;location;lat;lon;timestamp;pressure;altitude;pressure_sealevel;temperature;humidity
42067;BME280;27734;47.028;28.820;2022-12-29T00:01:25;101547.81;;;-0.40;70.56
42067;BME280;27734;47.028;28.820;2022-12-29T00:03:57;101549.49;;;-0.40;71.23
42067;BME280;27734;47.028;28.820;2022-12-29T00:06:29;101542.05;;;-0.37;70.57
42067;BME280;27734;47.028;28.820;2022-12-29T00:09:00;101532.17;;;-0.32;70.58
42067;BME280;27734;47.028;28.820;2022-12-29T00:11:32;101522.91;;;-0.30;70.77
42067;BME280;27734;47.028;28.820;2022-12-29T00:14:08;101512.73;;;-0.29;70.86
42067;BME280;27734;47.028;28.820;2022-12-29T00:16:57;101507.86;;;-0.26;70.70
42067;BME280;27734;47.028;28.820;2022-12-29T00:19:29;101496.94;;;-0.23;70.73
42067;BME280;27734;47.028;28.820;2022-12-29T00:22:18;101509.20;;;-0.21;71.29
42067;BME280;27734;47.028;28.820;2022-12-29T00:25:23;101516.80;;;-0.22;71.60
42067;BME280;27734;47.028;28.820;2022-12-29T00:28:12;101520.91;;;-0.24;71.89
42067;BME280;27734;47.028;28.820;2022-12-29T00:31:22;101514.70;;;-0.26;71.28
42067;BME280;27734;47.028;28.820;2022-12-29T00:34:17;101509.25;;;-0.29;71.44
42067;BME280;27734;47.028;28.820;2022-12-29T00:37:27;101514.27;;;-0.31;71.67
42067;BME280;27734;47.028;28.820;2022-12-29T00:40:12;101505.45;;;-0.33;71.06
42067;BME280;27734;47.028;28.820;2022-12-29T00:43:10;101498.35;;;-0.35;71.20
42067;BME280;27734;47.028;28.820;2022-12-29T00:45:59;101488.03;;;-0.35;71.42
42067;BME280;27734;47.028;28.820;2022-12-29T00:48:40;101480.30;;;-0.35;71.89
42067;BME280;27734;47.028;28.820;2022-12-29T00:51:33;101477.87;;;-0.34;71.49
42067;BME280;27734;47.028;28.820;2022-12-29T00:54:05;101475.14;;;-0.35;71.19
42067;BME280;27734;47.028;28.820;2022-12-29T00:56:36;101474.21;;;-0.36;71.25
42067;BME280;27734;47.028;28.820;2022-12-29T00:59:09;101472.56;;;-0.35;71.65
42067;BME280;27734;47.028;28.820;2022-12-29T01:01:40;101464.97;;;-0.34;72.04
42067;BME280;27734;47.028;28.820;2022-12-29T01:04:12;101461.00;;;-0.30;72.08
42067;BME280;27734;47.028;28.820;2022-12-29T01:06:44;101445.67;;;-0.29;71.74
42067;BME280;27734;47.028;28.820;2022-12-29T01:09:15;101451.73;;;-0.28;71.60
42067;BME280;27734;47.028;28.820;2022-12-29T01:12:06;101453.55;;;-0.27;71.72
42067;BME280;27734;47.028;28.820;2022-12-29T01:14:38;101457.81;;;-0.28;72.29
42067;BME280;27734;47.028;28.820;2022-12-29T01:17:13;101467.98;;;-0.29;71.45
42067;BME280;27734;47.028;28.820;2022-12-29T01:19:44;101465.41;;;-0.29;72.11
42067;BME280;27734;47.028;28.820;2022-12-29T01:22:15;101464.77;;;-0.27;71.49
42067;BME280;27734;47.028;28.820;2022-12-29T01:24:46;101454.59;;;-0.25;71.97
42067;BME280;27734;47.028;28.820;2022-12-29T01:27:18;101458.86;;;-0.26;71.33
42067;BME280;27734;47.028;28.820;2022-12-29T01:29:49;101456.28;;;-0.26;71.45
42067;BME280;27734;47.028;28.820;2022-12-29T01:32:20;101465.70;;;-0.26;71.61
42067;BME280;27734;47.028;28.820;2022-12-29T01:34:52;101455.67;;;-0.23;71.90
42067;BME280;27734;47.028;28.820;2022-12-29T01:37:27;101446.39;;;-0.21;72.12
42067;BME280;27734;47.028;28.820;2022-12-29T01:39:58;101443.63;;;-0.14;72.35
42067;BME280;27734;47.028;28.820;2022-12-29T01:42:29;101439.94;;;-0.07;72.08
42067;BME280;27734;47.028;28.820;2022-12-29T01:45:03;101438.08;;;0.01;72.77
42067;BME280;27734;47.028;28.820;2022-12-29T01:47:41;101437.10;;;0.09;72.58
42067;BME280;27734;47.028;28.820;2022-12-29T01:50:18;101427.06;;;0.12;72.51
42067;BME280;27734;47.028;28.820;2022-12-29T01:53:01;101419.60;;;0.15;72.38
42067;BME280;27734;47.028;28.820;2022-12-29T01:55:38;101419.13;;;0.19;72.50
42067;BME280;27734;47.028;28.820;2022-12-29T01:58:12;101411.81;;;0.24;72.39
42067;BME280;27734;47.028;28.820;2022-12-29T02:00:45;101420.73;;;0.27;71.95
42067;BME280;27734;47.028;28.820;2022-12-29T02:03:18;101423.45;;;0.29;72.57
42067;BME280;27734;47.028;28.820;2022-12-29T02:05:54;101425.42;;;0.31;72.58
42067;BME280;27734;47.028;28.820;2022-12-29T02:08:29;101424.63;;;0.32;72.21
42067;BME280;27734;47.028;28.820;2022-12-29T02:11:02;101413.55;;;0.33;72.62
42067;BME280;27734;47.028;28.820;2022-12-29T02:13:38;101407.63;;;0.34;72.07
42067;BME280;27734;47.028;28.820;2022-12-29T02:16:18;101410.34;;;0.36;72.58
42067;BME280;27734;47.028;28.820;2022-12-29T02:18:59;101400.91;;;0.37;72.17
42067;BME280;27734;47.028;28.820;2022-12-29T02:21:51;101405.32;;;0.38;72.35
42067;BME280;27734;47.028;28.820;2022-12-29T02:25:12;101395.75;;;0.37;72.42
42067;BME280;27734;47.028;28.820;2022-12-29T02:28:02;101393.92;;;0.35;72.24
42067;BME280;27734;47.028;28.820;2022-12-29T02:30:49;101398.33;;;0.37;72.27
42067;BME280;27734;47.028;28.820;2022-12-29T02:33:37;101396.50;;;0.35;71.95
42067;BME280;27734;47.028;28.820;2022-12-29T02:36:15;101396.50;;;0.35;72.38
42067;BME280;27734;47.028;28.820;2022-12-29T02:38:59;101393.03;;;0.35;72.50
42067;BME280;27734;47.028;28.820;2022-12-29T02:41:37;101393.03;;;0.35;72.15
42067;BME280;27734;47.028;28.820;2022-12-29T02:44:16;101391.34;;;0.35;72.16
42067;BME280;27734;47.028;28.820;2022-12-29T02:46:53;101383.59;;;0.35;72.51
42067;BME280;27734;47.028;28.820;2022-12-29T02:49:33;101387.11;;;0.36;72.14
42067;BME280;27734;47.028;28.820;2022-12-29T02:52:10;101392.27;;;0.36;72.39
42067;BME280;27734;47.028;28.820;2022-12-29T02:54:43;101388.77;;;0.35;72.33
42067;BME280;27734;47.028;28.820;2022-12-29T02:57:27;101393.03;;;0.35;71.99
42067;BME280;27734;47.028;28.820;2022-12-29T03:00:03;101392.14;;;0.34;72.40
42067;BME280;27734;47.028;28.820;2022-12-29T03:02:58;101394.72;;;0.34;72.32
42067;BME280;27734;47.028;28.820;2022-12-29T03:05:51;101387.73;;;0.33;72.11
42067;BME280;27734;47.028;28.820;2022-12-29T03:08:38;101383.31;;;0.32;71.82
42067;BME280;27734;47.028;28.820;2022-12-29T03:11:12;101382.28;;;0.30;72.34
42067;BME280;27734;47.028;28.820;2022-12-29T03:14:02;101383.69;;;0.27;71.91
42067;BME280;27734;47.028;28.820;2022-12-29T03:16:58;101382.48;;;0.23;72.44
42067;BME280;27734;47.028;28.820;2022-12-29T03:19:32;101383.13;;;0.21;72.17
42067;BME280;27734;47.028;28.820;2022-12-29T03:22:08;101388.63;;;0.15;72.33
42067;BME280;27734;47.028;28.820;2022-12-29T03:25:12;101376.06;;;0.09;72.58
42067;BME280;27734;47.028;28.820;2022-12-29T03:27:49;101374.12;;;0.07;72.63
42067;BME280;27734;47.028;28.820;2022-12-29T03:30:22;101373.05;;;0.05;72.39
42067;BME280;27734;47.028;28.820;2022-12-29T03:32:56;101375.64;;;0.05;72.41
42067;BME280;27734;47.028;28.820;2022-12-29T03:35:31;101373.70;;;0.02;72.01
42067;BME280;27734;47.028;28.820;2022-12-29T03:38:10;101382.20;;;0.01;72.36
42067;BME280;27734;47.028;28.820;2022-12-29T03:40:46;101387.36;;;0.01;72.32
42067;BME280;27734;47.028;28.820;2022-12-29T03:43:19;101384.64;;;-0.01;72.70
42067;BME280;27734;47.028;28.820;2022-12-29T03:45:51;101388.02;;;-0.02;72.45
42067;BME280;27734;47.028;28.820;2022-12-29T03:48:22;101381.16;;;-0.01;72.50
42067;BME280;27734;47.028;28.820;2022-12-29T03:50:54;101377.69;;;-0.02;72.53
42067;BME280;27734;47.028;28.820;2022-12-29T03:53:26;101381.02;;;-0.03;72.53
42067;BME280;27734;47.028;28.820;2022-12-29T03:55:57;101375.86;;;-0.03;72.39
42067;BME280;27734;47.028;28.820;2022-12-29T03:58:28;101381.16;;;-0.01;72.79
42067;BME280;27734;47.028;28.820;2022-12-29T04:01:12;101376.00;;;-0.01;72.12
42067;BME280;27734;47.028;28.820;2022-12-29T04:03:43;101375.11;;;-0.02;72.21
42067;BME280;27734;47.028;28.820;2022-12-29T04:06:17;101364.92;;;0.00;72.51
42067;BME280;27734;47.028;28.820;2022-12-29T04:08:53;101359.88;;;0.02;72.83
42067;BME280;27734;47.028;28.820;2022-12-29T04:11:25;101356.53;;;0.03;73.11
42067;BME280;27734;47.028;28.820;2022-12-29T04:13:58;101363.52;;;0.04;72.88
42067;BME280;27734;47.028;28.820;2022-12-29T04:16:31;101362.73;;;0.05;73.08
42067;BME280;27734;47.028;28.820;2022-12-29T04:19:07;101366.39;;;0.07;73.29
42067;BME280;27734;47.028;28.820;2022-12-29T04:21:43;101359.53;;;0.07;72.64
42067;BME280;27734;47.028;28.820;2022-12-29T04:24:16;101353.76;;;0.10;72.74
42067;BME280;27734;47.028;28.820;2022-12-29T04:26:48;101351.18;;;0.10;72.78
42067;BME280;27734;47.028;28.820;2022-12-29T04:29:47;101348.73;;;0.11;72.75
42067;BME280;27734;47.028;28.820;2022-12-29T04:32:46;101335.97;;;0.13;72.67
42067;BME280;27734;47.028;28.820;2022-12-29T04:35:17;101332.47;;;0.12;72.94
42067;BME280;27734;47.028;28.820;2022-12-29T04:37:48;101328.98;;;0.12;72.96
42067;BME280;27734;47.028;28.820;2022-12-29T04:40:20;101322.00;;;0.11;72.70
42067;BME280;27734;47.028;28.820;2022-12-29T04:42:53;101316.84;;;0.11;73.47
42067;BME280;27734;47.028;28.820;2022-12-29T04:45:25;101317.63;;;0.10;73.18
42067;BME280;27734;47.028;28.820;2022-12-29T04:48:09;101321.72;;;0.08;73.41
42067;BME280;27734;47.028;28.820;2022-12-29T04:51:10;101323.41;;;0.07;73.08
42067;BME280;27734;47.028;28.820;2022-12-29T04:53:43;101330.39;;;0.08;73.37
42067;BME280;27734;47.028;28.820;2022-12-29T04:56:14;101328.57;;;0.07;73.77
42067;BME280;27734;47.028;28.820;2022-12-29T04:58:45;101337.20;;;0.08;73.15
42067;BME280;27734;47.028;28.820;2022-12-29T05:01:17;101332.97;;;0.08;73.16
42067;BME280;27734;47.028;28.820;2022-12-29T05:03:51;101332.97;;;0.08;73.63
42067;BME280;27734;47.028;28.820;2022-12-29T05:06:22;101337.20;;;0.08;73.07
42067;BME280;27734;47.028;28.820;2022-12-29T05:08:53;101341.47;;;0.07;73.44
42067;BME280;27734;47.028;28.820;2022-12-29T05:11:24;101345.59;;;0.05;73.14
42067;BME280;27734;47.028;28.820;2022-12-29T05:13:57;101344.53;;;0.03;73.63
42067;BME280;27734;47.028;28.820;2022-12-29T05:16:28;101345.18;;;0.01;72.87
42067;BME280;27734;47.028;28.820;2022-12-29T05:19:00;101348.52;;;-0.01;72.98
42067;BME280;27734;47.028;28.820;2022-12-29T05:21:32;101352.03;;;0.00;73.15
42067;BME280;27734;47.028;28.820;2022-12-29T05:24:04;101349.55;;;0.02;73.67
42067;BME280;27734;47.028;28.820;2022-12-29T05:26:35;101346.08;;;0.01;73.80
42067;BME280;27734;47.028;28.820;2022-12-29T05:29:27;101349.55;;;0.02;73.52
42067;BME280;27734;47.028;28.820;2022-12-29T05:31:59;101359.12;;;0.03;73.56
42067;BME280;27734;47.028;28.820;2022-12-29T05:34:31;101355.78;;;0.04;73.21
42067;BME280;27734;47.028;28.820;2022-12-29T05:37:04;101370.20;;;0.02;73.97
42067;BME280;27734;47.028;28.820;2022-12-29T05:39:35;101366.58;;;-0.01;73.48
42067;BME280;27734;47.028;28.820;2022-12-29T05:42:08;101366.58;;;-0.01;73.43
42067;BME280;27734;47.028;28.820;2022-12-29T05:44:52;101365.54;;;-0.03;73.64
42067;BME280;27734;47.028;28.820;2022-12-29T05:47:50;101369.80;;;-0.03;73.83
42067;BME280;27734;47.028;28.820;2022-12-29T05:50:36;101371.59;;;-0.02;73.68
42067;BME280;27734;47.028;28.820;2022-12-29T05:53:15;101376.14;;;0.01;73.89
42067;BME280;27734;47.028;28.820;2022-12-29T05:55:48;101376.70;;;0.07;73.97
42067;BME280;27734;47.028;28.820;2022-12-29T05:58:20;101372.11;;;0.13;73.39
42067;BME280;27734;47.028;28.820;2022-12-29T06:00:52;101373.14;;;0.15;73.95
42067;BME280;27734;47.028;28.820;2022-12-29T06:03:23;101374.45;;;0.20;73.62
42067;BME280;27734;47.028;28.820;2022-12-29T06:05:55;101376.28;;;0.21;74.10
42067;BME280;27734;47.028;28.820;2022-12-29T06:08:26;101379.14;;;0.24;73.88
42067;BME280;27734;47.028;28.820;2022-12-29T06:10:58;101382.14;;;0.29;73.81
42067;BME280;27734;47.028;28.820;2022-12-29T06:13:29;101387.87;;;0.35;74.35
42067;BME280;27734;47.028;28.820;2022-12-29T06:16:11;101387.53;;;0.41;73.84
42067;BME280;27734;47.028;28.820;2022-12-29T06:18:46;101397.99;;;0.42;74.06
42067;BME280;27734;47.028;28.820;2022-12-29T06:21:27;101379.36;;;0.36;73.86
42067;BME280;27734;47.028;28.820;2022-12-29T06:23:58;101395.17;;;0.49;73.97
42067;BME280;27734;47.028;28.820;2022-12-29T06:26:30;101392.11;;;0.53;73.79
42067;BME280;27734;47.028;28.820;2022-12-29T06:29:03;101395.11;;;0.58;74.09
42067;BME280;27734;47.028;28.820;2022-12-29T06:31:35;101400.17;;;0.67;73.93
42067;BME280;27734;47.028;28.820;2022-12-29T06:34:07;101400.86;;;0.75;74.11
42067;BME280;27734;47.028;28.820;2022-12-29T06:36:40;101400.30;;;0.87;74.26
42067;BME280;27734;47.028;28.820;2022-12-29T06:39:12;101403.84;;;0.98;74.34
42067;BME280;27734;47.028;28.820;2022-12-29T06:41:53;101399.45;;;1.07;74.35
42067;BME280;27734;47.028;28.820;2022-12-29T06:44:34;101401.54;;;1.12;74.23
42067;BME280;27734;47.028;28.820;2022-12-29T06:47:09;101402.84;;;1.17;74.30
42067;BME280;27734;47.028;28.820;2022-12-29T06:49:40;101401.32;;;1.19;73.93
42067;BME280;27734;47.028;28.820;2022-12-29T06:52:11;101398.08;;;1.21;74.17
42067;BME280;27734;47.028;28.820;2022-12-29T06:54:45;101406.23;;;1.26;74.27
42067;BME280;27734;47.028;28.820;2022-12-29T06:57:17;101396.16;;;1.29;74.22
42067;BME280;27734;47.028;28.820;2022-12-29T06:59:48;101389.59;;;1.33;74.14
42067;BME280;27734;47.028;28.820;2022-12-29T07:02:24;101383.27;;;1.39;73.98
42067;BME280;27734;47.028;28.820;2022-12-29T07:04:56;101372.69;;;1.47;74.63
42067;BME280;27734;47.028;28.820;2022-12-29T07:07:30;101383.69;;;1.54;74.62
42067;BME280;27734;47.028;28.820;2022-12-29T07:09:59;101385.52;;;1.66;74.79
42067;BME280;27734;47.028;28.820;2022-12-29T07:14:30;101363.91;;;1.75;74.34
42067;BME280;27734;47.028;28.820;2022-12-29T07:17:01;101353.05;;;1.79;74.42
42067;BME280;27734;47.028;28.820;2022-12-29T07:19:39;101349.16;;;1.85;74.45
42067;BME280;27734;47.028;28.820;2022-12-29T07:22:43;101360.02;;;1.91;74.58
42067;BME280;27734;47.028;28.820;2022-12-29T07:25:18;101354.05;;;2.02;74.13
42067;BME280;27734;47.028;28.820;2022-12-29T07:27:52;101361.69;;;2.11;74.38
42067;BME280;27734;47.028;28.820;2022-12-29T07:30:23;101366.84;;;2.21;74.61
42067;BME280;27734;47.028;28.820;2022-12-29T07:32:55;101363.22;;;2.29;74.55
42067;BME280;27734;47.028;28.820;2022-12-29T07:35:29;101360.59;;;2.40;74.73
42067;BME280;27734;47.028;28.820;2022-12-29T07:38:02;101363.81;;;2.47;74.28
42067;BME280;27734;47.028;28.820;2022-12-29T07:40:37;101371.19;;;2.53;74.12
42067;BME280;27734;47.028;28.820;2022-12-29T07:43:18;101379.59;;;2.61;74.14
42067;BME280;27734;47.028;28.820;2022-12-29T07:46:09;101380.34;;;2.70;73.94
42067;BME280;27734;47.028;28.820;2022-12-29T07:48:41;101372.27;;;2.77;74.82
42067;BME280;27734;47.028;28.820;2022-12-29T07:51:14;101377.05;;;2.83;74.52
42067;BME280;27734;47.028;28.820;2022-12-29T07:53:46;101385.97;;;2.86;74.78
42067;BME280;27734;47.028;28.820;2022-12-29T07:56:18;101390.75;;;2.92;74.19
42067;BME280;27734;47.028;28.820;2022-12-29T07:58:50;101381.64;;;2.97;74.41
42067;BME280;27734;47.028;28.820;2022-12-29T08:01:21;101390.16;;;3.06;74.54
42067;BME280;27734;47.028;28.820;2022-12-29T08:03:53;101398.03;;;3.18;73.97
42067;BME280;27734;47.028;28.820;2022-12-29T08:06:28;101404.84;;;3.28;74.23
42067;BME280;27734;47.028;28.820;2022-12-29T08:09:00;101397.67;;;3.36;74.40
42067;BME280;27734;47.028;28.820;2022-12-29T08:11:32;101405.16;;;3.43;74.00
42067;BME280;27734;47.028;28.820;2022-12-29T08:14:03;101401.47;;;3.51;73.31
42067;BME280;27734;47.028;28.820;2022-12-29T08:16:36;101399.36;;;3.57;74.17
42067;BME280;27734;47.028;28.820;2022-12-29T08:19:11;101401.90;;;3.68;73.84
42067;BME280;27734;47.028;28.820;2022-12-29T08:21:51;101401.15;;;3.81;73.74
42067;BME280;27734;47.028;28.820;2022-12-29T08:24:24;101393.02;;;3.88;73.31
42067;BME280;27734;47.028;28.820;2022-12-29T08:26:55;101395.20;;;3.93;73.97
42067;BME280;27734;47.028;28.820;2022-12-29T08:29:27;101386.41;;;4.03;74.08
42067;BME280;27734;47.028;28.820;2022-12-29T08:31:59;101386.09;;;4.10;73.89
42067;BME280;27734;47.028;28.820;2022-12-29T08:34:31;101385.67;;;4.16;73.47
42067;BME280;27734;47.028;28.820;2022-12-29T08:37:03;101381.59;;;4.20;73.57
42067;BME280;27734;47.028;28.820;2022-12-29T08:39:36;101380.47;;;4.28;73.61
42067;BME280;27734;47.028;28.820;2022-12-29T08:42:23;101373.91;;;4.33;74.07
42067;BME280;27734;47.028;28.820;2022-12-29T08:45:00;101382.52;;;4.44;73.92
42067;BME280;27734;47.028;28.820;2022-12-29T08:47:32;101368.53;;;4.54;73.19
42067;BME280;27734;47.028;28.820;2022-12-29T08:50:08;101362.30;;;4.63;73.58
42067;BME280;27734;47.028;28.820;2022-12-29T08:52:39;101349.86;;;4.71;73.42
42067;BME280;27734;47.028;28.820;2022-12-29T08:55:14;101349.72;;;4.81;73.32
42067;BME280;27734;47.028;28.820;2022-12-29T08:57:49;101337.38;;;4.91;73.11
42067;BME280;27734;47.028;28.820;2022-12-29T09:00:23;101330.12;;;4.98;72.92
42067;BME280;27734;47.028;28.820;2022-12-29T09:02:55;101323.80;;;5.07;73.45
42067;BME280;27734;47.028;28.820;2022-12-29T09:05:30;101313.83;;;5.13;73.33
42067;BME280;27734;47.028;28.820;2022-12-29T09:08:02;101308.02;;;5.17;73.18
42067;BME280;27734;47.028;28.820;2022-12-29T09:10:34;101310.84;;;5.20;72.83
42067;BME280;27734;47.028;28.820;2022-12-29T09:13:06;101304.28;;;5.25;73.60
42067;BME280;27734;47.028;28.820;2022-12-29T09:15:40;101300.86;;;5.26;72.37
42067;BME280;27734;47.028;28.820;2022-12-29T09:18:14;101293.38;;;5.31;72.05
42067;BME280;27734;47.028;28.820;2022-12-29T09:20:49;101287.59;;;5.35;72.49
42067;BME280;27734;47.028;28.820;2022-12-29T09:23:20;101275.79;;;5.40;72.17
42067;BME280;27734;47.028;28.820;2022-12-29T09:25:51;101269.30;;;5.47;72.25
42067;BME280;27734;47.028;28.820;2022-12-29T09:28:23;101263.72;;;5.54;72.54
42067;BME280;27734;47.028;28.820;2022-12-29T09:30:58;101259.93;;;5.62;71.73
42067;BME280;27734;47.028;28.820;2022-12-29T09:33:33;101250.65;;;5.66;71.75
42067;BME280;27734;47.028;28.820;2022-12-29T09:36:07;101253.77;;;5.73;72.29
42067;BME280;27734;47.028;28.820;2022-12-29T09:38:39;101245.55;;;5.81;72.15
42067;BME280;27734;47.028;28.820;2022-12-29T09:41:22;101248.45;;;5.85;71.65
42067;BME280;27734;47.028;28.820;2022-12-29T09:44:08;101241.05;;;5.91;71.83
42067;BME280;27734;47.028;28.820;2022-12-29T09:46:47;101241.59;;;5.99;72.21
42067;BME280;27734;47.028;28.820;2022-12-29T09:49:25;101240.19;;;6.04;71.52
42067;BME280;27734;47.028;28.820;2022-12-29T09:52:10;101221.16;;;6.05;71.23
42067;BME280;27734;47.028;28.820;2022-12-29T09:54:48;101233.80;;;6.13;71.60
42067;BME280;27734;47.028;28.820;2022-12-29T09:57:26;101240.20;;;6.18;71.24
42067;BME280;27734;47.028;28.820;2022-12-29T10:00:02;101236.17;;;6.23;71.38
42067;BME280;27734;47.028;28.820;2022-12-29T10:02:46;101238.39;;;6.30;71.41
42067;BME280;27734;47.028;28.820;2022-12-29T10:05:34;101243.17;;;6.37;70.87
42067;BME280;27734;47.028;28.820;2022-12-29T10:08:22;101244.39;;;6.42;70.75
42067;BME280;27734;47.028;28.820;2022-12-29T10:11:03;101239.38;;;6.45;70.93
42067;BME280;27734;47.028;28.820;2022-12-29T10:13:47;101247.59;;;6.52;71.43
42067;BME280;27734;47.028;28.820;2022-12-29T10:16:29;101243.37;;;6.54;70.85
42067;BME280;27734;47.028;28.820;2022-12-29T10:19:16;101249.67;;;6.57;70.95
42067;BME280;27734;47.028;28.820;2022-12-29T10:22:02;101236.92;;;6.62;70.23
42067;BME280;27734;47.028;28.820;2022-12-29T10:24:38;101236.33;;;6.66;70.22
42067;BME280;27734;47.028;28.820;2022-12-29T10:27:14;101234.80;;;6.70;70.06
42067;BME280;27734;47.028;28.820;2022-12-29T10:29:50;101239.32;;;6.72;69.93
42067;BME280;27734;47.028;28.820;2022-12-29T10:32:33;101236.81;;;6.74;69.94
42067;BME280;27734;47.028;28.820;2022-12-29T10:35:14;101232.87;;;6.80;69.75
42067;BME280;27734;47.028;28.820;2022-12-29T10:37:52;101235.48;;;6.80;69.10
42067;BME280;27734;47.028;28.820;2022-12-29T10:40:31;101226.95;;;6.83;69.89
42067;BME280;27734;47.028;28.820;2022-12-29T10:43:22;101219.22;;;6.84;69.61
42067;BME280;27734;47.028;28.820;2022-12-29T10:46:04;101223.55;;;6.84;69.48
42067;BME280;27734;47.028;28.820;2022-12-29T10:48:40;101218.48;;;6.87;69.35
42067;BME280;27734;47.028;28.820;2022-12-29T10:51:21;101216.07;;;6.90;69.00
42067;BME280;27734;47.028;28.820;2022-12-29T10:53:57;101211.05;;;6.93;69.25
42067;BME280;27734;47.028;28.820;2022-12-29T10:56:35;101215.56;;;6.96;69.44
42067;BME280;27734;47.028;28.820;2022-12-29T10:59:15;101213.14;;;6.99;68.54
42067;BME280;27734;47.028;28.820;2022-12-29T11:01:55;101214.13;;;7.01;68.90
42067;BME280;27734;47.028;28.820;2022-12-29T11:04:38;101210.72;;;7.02;68.72
42067;BME280;27734;47.028;28.820;2022-12-29T11:07:18;101215.33;;;7.06;69.47
42067;BME280;27734;47.028;28.820;2022-12-29T11:09:54;101201.64;;;7.10;68.77
42067;BME280;27734;47.028;28.820;2022-12-29T11:12:30;101197.86;;;7.05;67.07
42067;BME280;27734;47.028;28.820;2022-12-29T11:15:14;101194.27;;;7.03;67.78
42067;BME280;27734;47.028;28.820;2022-12-29T11:17:48;101196.88;;;7.03;68.24
42067;BME280;27734;47.028;28.820;2022-12-29T11:20:37;101195.06;;;7.02;68.04
42067;BME280;27734;47.028;28.820;2022-12-29T11:23:24;101194.45;;;7.06;68.34
42067;BME280;27734;47.028;28.820;2022-12-29T11:26:14;101196.14;;;7.06;67.90
42067;BME280;27734;47.028;28.820;2022-12-29T11:29:02;101191.02;;;7.07;68.16
42067;BME280;27734;47.028;28.820;2022-12-29T11:31:41;101196.33;;;7.09;67.89
42067;BME280;27734;47.028;28.820;2022-12-29T11:34:18;101191.11;;;7.09;67.99
42067;BME280;27734;47.028;28.820;2022-12-29T11:36:52;101169.95;;;7.04;68.49
42067;BME280;27734;47.028;28.820;2022-12-29T11:39:32;101180.15;;;7.14;67.98
42067;BME280;27734;47.028;28.820;2022-12-29T11:42:11;101180.34;;;7.17;67.58
42067;BME280;27734;47.028;28.820;2022-12-29T11:44:50;101181.23;;;7.18;66.14
42067;BME280;27734;47.028;28.820;2022-12-29T11:47:28;101174.13;;;7.15;66.50
42067;BME280;27734;47.028;28.820;2022-12-29T11:50:04;101168.91;;;7.15;67.20
42067;BME280;27734;47.028;28.820;2022-12-29T11:52:35;101167.80;;;7.12;66.54
42067;BME280;27734;47.028;28.820;2022-12-29T11:55:25;101167.80;;;7.12;67.16
42067;BME280;27734;47.028;28.820;2022-12-29T11:58:03;101169.01;;;7.17;67.44
42067;BME280;27734;47.028;28.820;2022-12-29T12:00:43;101163.14;;;7.21;67.51
42067;BME280;27734;47.028;28.820;2022-12-29T12:03:20;101153.71;;;7.23;66.84
42067;BME280;27734;47.028;28.820;2022-12-29T12:05:56;101144.95;;;7.23;67.03
42067;BME280;27734;47.028;28.820;2022-12-29T12:08:35;101142.53;;;7.26;67.47
42067;BME280;27734;47.028;28.820;2022-12-29T12:11:12;101139.39;;;7.31;66.84
42067;BME280;27734;47.028;28.820;2022-12-29T12:13:54;101142.00;;;7.31;66.31
42067;BME280;27734;47.028;28.820;2022-12-29T12:16:36;101148.12;;;7.32;66.74
42067;BME280;27734;47.028;28.820;2022-12-29T12:19:19;101149.92;;;7.33;66.73
42067;BME280;27734;47.028;28.820;2022-12-29T12:21:59;101149.13;;;7.34;66.57
42067;BME280;27734;47.028;28.820;2022-12-29T12:24:41;101150.02;;;7.34;66.91
42067;BME280;27734;47.028;28.820;2022-12-29T12:27:18;101149.92;;;7.33;66.54
42067;BME280;27734;47.028;28.820;2022-12-29T12:29:59;101156.96;;;7.34;66.25
42067;BME280;27734;47.028;28.820;2022-12-29T12:32:39;101151.65;;;7.32;66.17
42067;BME280;27734;47.028;28.820;2022-12-29T12:35:16;101157.76;;;7.33;66.56
42067;BME280;27734;47.028;28.820;2022-12-29T12:38:13;101141.39;;;7.35;66.18
42067;BME280;27734;47.028;28.820;2022-12-29T12:41:06;101144.09;;;7.37;66.33
42067;BME280;27734;47.028;28.820;2022-12-29T12:43:45;101140.28;;;7.32;66.19
42067;BME280;27734;47.028;28.820;2022-12-29T12:46:50;101147.14;;;7.30;66.02
42067;BME280;27734;47.028;28.820;2022-12-29T12:50:06;101135.44;;;7.23;65.39
42067;BME280;27734;47.028;28.820;2022-12-29T12:52:53;101143.00;;;7.18;65.91
42067;BME280;27734;47.028;28.820;2022-12-29T12:55:41;101139.55;;;7.19;66.26
42067;BME280;27734;47.028;28.820;2022-12-29T12:58:26;101133.54;;;7.20;66.02
42067;BME280;27734;47.028;28.820;2022-12-29T13:01:23;101126.41;;;7.18;66.04
42067;BME280;27734;47.028;28.820;2022-12-29T13:04:17;101127.16;;;7.15;65.51
42067;BME280;27734;47.028;28.820;2022-12-29T13:07:03;101127.67;;;7.10;66.01
42067;BME280;27734;47.028;28.820;2022-12-29T13:09:56;101126.70;;;7.08;65.97
42067;BME280;27734;47.028;28.820;2022-12-29T13:12:40;101121.11;;;7.01;65.84
42067;BME280;27734;47.028;28.820;2022-12-29T13:15:24;101129.55;;;6.97;65.56
42067;BME280;27734;47.028;28.820;2022-12-29T13:18:12;101124.23;;;6.96;66.04
42067;BME280;27734;47.028;28.820;2022-12-29T13:20:55;101132.77;;;6.93;65.95
42067;BME280;27734;47.028;28.820;2022-12-29T13:23:38;101131.78;;;6.91;66.20
42067;BME280;27734;47.028;28.820;2022-12-29T13:26:20;101131.59;;;6.88;65.92
42067;BME280;27734;47.028;28.820;2022-12-29T13:28:59;101128.80;;;6.85;66.06
42067;BME280;27734;47.028;28.820;2022-12-29T13:31:43;101126.11;;;6.83;66.10
42067;BME280;27734;47.028;28.820;2022-12-29T13:34:27;101129.55;;;6.82;66.07
42067;BME280;27734;47.028;28.820;2022-12-29T13:37:09;101125.82;;;6.79;65.90
42067;BME280;27734;47.028;28.820;2022-12-29T13:39:45;101131.04;;;6.79;66.14
42067;BME280;27734;47.028;28.820;2022-12-29T13:42:21;101129.17;;;6.76;65.75
42067;BME280;27734;47.028;28.820;2022-12-29T13:45:06;101129.07;;;6.75;66.26
42067;BME280;27734;47.028;28.820;2022-12-29T13:47:48;101124.55;;;6.72;65.84